Mountain Lake, MN

9:11 AM CDT on July 31, 2014 (GMT -0500)
Fairmont Municipal (KFRM) Elev 1161 ft | 43.65 °N, 94.42 °W | Change Station

Current weather conditions updated 16 minutes ago

Partly Cloudy
Partly Cloudy
70 °F
Feels Like 70 °F
N
7
Wind Variable Wind from WNW

Today is forecast to be nearly the same temperature as yesterday.

Today
High -- | Low -- °F
--% Chance of Precip.
Yesterday
High -- | Low -- °F
Precip. -- in
6:06 AM 8:44 PM
Waxing Crescent, 18% visible
Pressure 30.09 in
Visibility 10.0 miles
Clouds Few 6000 ft
Dew Point 55 °F
Humidity 60%
Rainfall 0.00 in
Snow Depth Not available.
UV 3 out of 12
Pollen 6.40 out of 12
Air Quality Not available.
Flu Activity Not available.
METAR KFRM 311355Z AUTO 29006KT 10SM FEW060 21/13 A3009 RMK AO1

More Conditions Fewer Conditions

Pressure 30.09 in
Visibility 10.0 miles
Clouds Few 6000 ft
Dew Point 55 °F
Humidity 60%
Rainfall 0.00 in
Snow Depth Not available.
UV 3 out of 12
Pollen 6.40 out of 12
Air Quality Not available.
Flu Activity Not available.
METAR KFRM 311355Z AUTO 29006KT 10SM FEW060 21/13 A3009 RMK AO1

More Conditions Fewer Conditions

10-Day Weather Forecast

Almanac

Astronomy

Jul. 31, 2014 Rise Set
Actual Time 6:06 AM CDT 8:44 PM CDT
Civil Twilight 5:33 AM CDT 9:17 PM CDT
Nautical Twilight 4:52 AM CDT 9:58 PM CDT
Astronomical Twilight 4:04 AM CDT 10:45 PM CDT
Moon 10:46 AM CDT 10:46 PM CDT
Length of Visible Light 15h 43m
Length of Day
14h 37m
Tomorrow will be 2m 17s shorter.
Waxing Crescent, 18% of the Moon is Illuminated
Today
Waxing Crescent
Aug 3
First Quarter
Aug 10
Full
Aug 17
Last Quarter
Aug 25
New

Today's Extremes

State Highs State Lows

Community

WunderPhotos

Upload Photos

1,739,330 photos uploaded!

Nearby

Snow Depth

Station Depth Elevation
No new snow has been reported.

Earthquake Activity

City Distance Mag. Time & Date
No recent earthquake activity has been reported nearby.
Minimum magnitude displayed is 2.5.

Coastal Water Temperatures

Place Temperature
No Stations Reporting

Nearby Weather Stations

Station Location Temp. Heat Index Dew Point Humidity Wind Precip. Elev Updated Type
Kimball Township, Mountain Lake, MN 66.7 °F - 62 °F 85% West  at  0.0 mph - / hr 1352 ft 9:01 AM CDT Normal
NuWay Coop - Trimont, Trimont, MN 68.1 °F - 60 °F 76% NW  at  5.0 mph 0.00 in / hr 1220 ft 9:07 AM CDT Normal
KC0NKL - Elm Creek Township, Sherburn, MN 71.2 °F 74 °F 61 °F 71% SW  at  1.1 mph 0.00 in / hr 1322 ft 9:11 AM CDT Rapid Fire
Sorenson Seed, Storden, MN 69.4 °F - 62 °F 77% SSW  at  0.0 mph 0.00 in / hr 1404 ft 9:09 AM CDT Normal
Sleepy Eye Airport, Sleepy Eye, MN 66.8 °F - 62 °F 84% WNW  at  0.0 mph 0.00 in / hr 994 ft 9:11 AM CDT Rapid Fire
NuWay Coop - Welcome, Welcome, MN 68.8 °F - 59 °F 72% WSW  at  4.0 mph 0.00 in / hr 1224 ft 9:03 AM CDT Normal

Show More Stations Show Fewer Stations